Time;durP1;ratioP1;P1;durP2;ratioP2;P2;SDS_P1;SDS_P2;PMS_P1;PMS_P2;Temp;Humidity;BMP_temperature;BMP_pressure;BME280_temperature;BME280_humidity;BME280_pressure;Samples;Min_cycle;Max_cycle;Signal;HPM_P1;HPM_P2
2022/05/03 00:00:15;;;;;;;9.55;7.22;;;;;;;6.65;100.00;162305.38;4999265;28;20069;-56
2022/05/03 00:02:54;;;;;;;10.32;8.55;;;;;;;6.67;100.00;162309.41;5009325;28;20053;-56
2022/05/03 00:05:36;;;;;;;13.20;8.93;;;;;;;6.67;100.00;162310.72;5011516;28;20030;-56
2022/05/03 00:08:15;;;;;;;6.78;6.15;;;;;;;6.69;100.00;162313.44;5029395;28;20046;-56
2022/05/03 00:10:54;;;;;;;9.07;7.38;;;;;;;6.71;100.00;162318.81;5029136;28;20156;-56
2022/05/03 00:13:21;;;;;;;;;;;;;;;6.71;100.00;162318.81;5031406;28;20064;-56
2022/05/03 00:15:49;;;;;;;10.23;7.90;;;;;;;6.69;100.00;162313.44;5028576;28;19924;-56
2022/05/03 00:18:15;;;;;;;10.02;9.02;;;;;;;6.65;100.00;162305.38;5030774;28;20029;-55
2022/05/03 00:20:40;;;;;;;7.63;6.82;;;;;;;6.60;100.00;162291.88;5029578;28;20124;-55
2022/05/03 00:23:07;;;;;;;11.52;7.75;;;;;;;6.59;100.00;162289.19;5030474;28;20100;-56
2022/05/03 00:25:33;;;;;;;11.55;6.93;;;;;;;6.57;100.00;162283.81;5029295;28;20036;-55
2022/05/03 00:27:59;;;;;;;7.88;7.07;;;;;;;6.54;100.00;162275.72;5030810;28;20025;-55
2022/05/03 00:30:25;;;;;;;9.43;8.43;;;;;;;6.52;100.00;162270.31;5028289;28;20061;-55
2022/05/03 00:32:52;;;;;;;10.23;6.88;;;;;;;6.49;100.00;162263.59;5011028;28;20034;-55
2022/05/03 00:35:21;;;;;;;8.63;5.78;;;;;;;6.48;100.00;162259.59;5011061;28;20032;-56
2022/05/03 00:37:46;;;;;;;11.45;7.82;;;;;;;6.45;100.00;162252.84;5008843;28;20042;-56
2022/05/03 00:40:14;;;;;;;10.90;6.78;;;;;;;6.41;100.00;162242.06;5011072;28;20030;-56
2022/05/03 00:43:06;;;;;;;7.65;6.95;;;;;;;6.44;100.00;162248.84;5009683;28;20120;-57
2022/05/03 00:45:45;;;;;;;8.50;7.20;;;;;;;6.38;100.00;162232.63;5012542;28;20530;-56
2022/05/03 00:48:33;;;;;;;8.88;7.97;;;;;;;6.33;100.00;162221.91;5014622;28;20468;-56
2022/05/03 00:51:25;;;;;;;7.32;6.63;;;;;;;6.16;100.00;162176.13;5011723;28;20137;-56
2022/05/03 00:54:08;;;;;;;8.75;7.43;;;;;;;6.15;100.00;162173.41;5014076;28;20100;-56
2022/05/03 00:56:47;;;;;;;12.57;8.23;;;;;;;6.13;100.00;162169.38;5012862;28;20038;-56
2022/05/03 00:59:45;;;;;;;8.82;6.43;;;;;;;6.12;100.00;162165.38;5013999;28;20068;-56
2022/05/03 01:02:13;;;;;;;8.88;6.38;;;;;;;6.06;100.00;162149.22;5012974;28;20046;-57
2022/05/03 01:05:03;;;;;;;9.38;6.53;;;;;;;6.05;100.00;162146.53;5014359;28;20025;-57
2022/05/03 01:07:35;;;;;;;9.82;6.65;;;;;;;5.96;100.00;162124.94;5012366;28;20125;-57
2022/05/03 01:10:29;;;;;;;7.85;6.78;;;;;;;5.89;100.00;162106.09;5014182;28;20034;-57
2022/05/03 01:13:05;;;;;;;7.03;6.32;;;;;;;5.90;100.00;162108.81;5031946;28;20048;-57
2022/05/03 01:15:39;;;;;;;7.43;6.18;;;;;;;5.90;100.00;162108.81;5032019;28;20057;-57
2022/05/03 01:18:25;;;;;;;9.00;8.07;;;;;;;5.88;100.00;162103.41;5034030;28;20488;-57
2022/05/03 01:21:32;;;;;;;9.48;6.35;;;;;;;5.87;100.00;162100.72;5031979;28;20044;-57
2022/05/03 01:24:28;;;;;;;6.18;5.53;;;;;;;5.83;100.00;162089.97;5024509;28;20393;-57
2022/05/03 01:27:12;;;;;;;7.80;6.75;;;;;;;5.76;100.00;162071.13;5032330;28;20038;-57
2022/05/03 01:29:40;;;;;;;7.10;5.70;;;;;;;5.76;100.00;162071.13;5033176;28;20083;-57
2022/05/03 01:32:09;;;;;;;10.00;6.32;;;;;;;5.66;100.00;162045.56;5032098;28;20068;-57
2022/05/03 01:34:35;;;;;;;10.80;7.80;;;;;;;5.59;100.00;162026.69;5032911;28;20032;-57
2022/05/03 01:37:03;;;;;;;7.38;6.65;;;;;;;5.48;100.00;161998.44;5031785;28;20045;-56
2022/05/03 01:39:53;;;;;;;10.70;5.82;;;;;;;5.36;100.00;161968.88;5033330;28;20112;-56
2022/05/03 01:42:39;;;;;;;8.57;6.20;;;;;;;5.27;100.00;161943.31;5031597;28;20508;-56
2022/05/03 01:45:09;;;;;;;9.32;6.80;;;;;;;5.20;100.00;161925.81;5033547;28;20025;-56
2022/05/03 01:48:12;;;;;;;6.63;5.97;;;;;;;5.23;100.00;161933.91;5031750;28;20054;-57
2022/05/03 01:50:57;;;;;;;6.25;5.70;;;;;;;5.26;100.00;161941.94;5031182;28;20038;-57
2022/05/03 01:53:33;;;;;;;10.70;7.03;;;;;;;5.26;100.00;161941.94;5033118;28;20014;-57
2022/05/03 01:56:22;;;;;;;8.90;6.93;;;;;;;5.28;100.00;161947.34;5031683;28;20247;-57
2022/05/03 01:59:03;;;;;;;;;;;;;;;5.30;100.00;161951.34;5033109;28;20099;-57
2022/05/03 02:01:50;;;;;;;11.60;6.70;;;;;;;5.24;100.00;161936.59;5031308;28;19921;-57
2022/05/03 02:04:21;;;;;;;8.18;6.65;;;;;;;5.17;100.00;161919.09;5032709;28;20029;-57
2022/05/03 02:06:55;;;;;;;11.20;7.00;;;;;;;5.08;100.00;161896.25;5031178;28;20044;-57
2022/05/03 02:09:28;;;;;;;9.02;7.25;;;;;;;5.06;100.00;161890.84;5033075;28;20092;-57
2022/05/03 02:12:02;;;;;;;11.10;7.32;;;;;;;5.06;100.00;161889.53;5031219;28;20096;-57
2022/05/03 02:14:43;;;;;;;8.40;7.45;;;;;;;4.99;100.00;161872.03;5032290;28;20029;-57
2022/05/03 02:17:13;;;;;;;9.85;7.03;;;;;;;4.91;100.00;161850.50;5031150;28;20501;-57
2022/05/03 02:20:01;;;;;;;7.25;6.55;;;;;;;4.87;100.00;161841.09;5032356;28;20159;-57
2022/05/03 02:23:03;;;;;;;10.27;6.65;;;;;;;4.76;100.00;161811.53;5031061;28;20492;-57
2022/05/03 02:26:24;;;;;;;8.95;7.80;;;;;;;4.67;100.00;161788.63;5031105;28;20025;-57
2022/05/03 02:29:04;;;;;;;8.55;6.28;;;;;;;4.69;100.00;161794.03;5009663;28;20100;-57
2022/05/03 02:31:54;;;;;;;10.43;7.05;;;;;;;4.68;100.00;161791.34;5010936;28;20053;-57
2022/05/03 02:34:40;;;;;;;7.93;7.13;;;;;;;4.73;100.00;161804.75;5012378;28;20534;-57
2022/05/03 02:37:22;;;;;;;9.27;8.38;;;;;;;4.71;100.00;161799.41;5029384;28;20056;-57
2022/05/03 02:39:58;;;;;;;8.82;7.03;;;;;;;4.62;100.00;161773.88;5032093;28;20096;-57
2022/05/03 02:42:25;;;;;;;13.45;10.27;;;;;;;4.52;100.00;161748.31;5030458;28;20497;-57
2022/05/03 02:44:54;;;;;;;9.98;7.47;;;;;;;4.40;100.00;161718.75;5032454;28;20384;-57
2022/05/03 02:47:27;;;;;;;9.77;8.10;;;;;;;4.36;100.00;161706.66;5030474;28;20041;-57
2022/05/03 02:49:58;;;;;;;10.80;7.55;;;;;;;4.30;100.00;161691.84;5032032;28;20103;-57
2022/05/03 02:52:40;;;;;;;10.65;8.05;;;;;;;4.23;100.00;161674.41;5030523;28;20044;-57
2022/05/03 02:55:17;;;;;;;9.73;7.85;;;;;;;4.20;100.00;161665.00;5032132;28;20040;-57
2022/05/03 02:57:53;;;;;;;10.02;8.98;;;;;;;4.18;100.00;161660.94;5029853;28;20033;-57
2022/05/03 03:03:19;;;;;;;8.60;7.45;;;;;;;3.98;100.00;161608.53;5030520;28;20045;-57
2022/05/03 03:05:53;;;;;;;9.13;8.25;;;;;;;4.01;100.00;161616.59;5029225;28;20048;-57
2022/05/03 03:08:19;;;;;;;13.25;8.75;;;;;;;4.02;100.00;161619.28;5031647;28;20075;-57
2022/05/03 03:10:57;;;;;;;14.32;9.55;;;;;;;3.96;100.00;161603.16;5030284;28;20037;-57
2022/05/03 03:13:28;;;;;;;15.45;10.02;;;;;;;3.94;100.00;161597.78;5031384;28;20025;-56
2022/05/03 03:15:54;;;;;;;11.32;10.23;;;;;;;4.01;100.00;161616.59;5029978;28;20686;-57
2022/05/03 03:18:24;;;;;;;10.27;8.70;;;;;;;4.04;100.00;161624.66;5031452;28;20035;-56
2022/05/03 03:20:55;;;;;;;11.27;9.05;;;;;;;4.06;100.00;161630.00;5030074;28;20045;-56
2022/05/03 03:23:25;;;;;;;10.45;9.45;;;;;;;3.99;100.00;161611.19;5031319;28;20025;-57
2022/05/03 03:25:51;;;;;;;10.65;7.90;;;;;;;3.91;100.00;161589.75;5029958;28;20107;-57
2022/05/03 03:28:21;;;;;;;9.65;7.70;;;;;;;3.96;100.00;161603.16;5031006;28;20025;-57
2022/05/03 03:30:51;;;;;;;10.57;8.63;;;;;;;3.75;100.00;161549.41;5029887;28;20045;-57
2022/05/03 03:33:18;;;;;;;9.50;8.35;;;;;;;3.32;100.00;161436.53;5031727;28;20022;-57
2022/05/03 03:35:45;;;;;;;10.75;7.82;;;;;;;3.07;100.00;161372.09;5029495;28;20073;-57
2022/05/03 03:38:13;;;;;;;11.98;10.77;;;;;;;2.90;100.00;161326.41;5031092;28;20021;-55
2022/05/03 03:40:39;;;;;;;12.93;8.45;;;;;;;2.85;100.00;161315.69;5029686;28;20029;-55
2022/05/03 03:43:05;;;;;;;9.35;8.45;;;;;;;2.69;100.00;161272.72;5030862;28;20022;-56
2022/05/03 03:45:31;;;;;;;13.32;9.68;;;;;;;2.65;100.00;161263.31;5029448;28;20100;-57
2022/05/03 03:47:56;;;;;;;10.20;8.85;;;;;;;2.60;100.00;161248.53;5030978;28;20036;-57
2022/05/03 03:50:24;;;;;;;12.93;10.25;;;;;;;2.54;100.00;161235.13;5030896;28;20072;-57
2022/05/03 03:52:51;;;;;;;13.75;9.60;;;;;;;2.49;100.00;161221.72;5029726;28;20456;-57
2022/05/03 03:55:18;;;;;;;12.13;9.95;;;;;;;2.45;100.00;161209.63;5031081;28;20485;-57
2022/05/03 03:57:44;;;;;;;11.60;10.18;;;;;;;2.43;100.00;161205.56;5029189;28;20516;-57
2022/05/03 04:00:12;;;;;;;18.58;10.63;;;;;;;2.42;100.00;161202.88;5030855;28;20029;-57
2022/05/03 04:02:41;;;;;;;11.02;8.90;;;;;;;2.41;100.00;161200.22;5027554;28;20046;-57
2022/05/03 04:05:13;;;;;;;12.90;9.45;;;;;;;2.33;100.00;161178.75;5030924;28;20091;-57
2022/05/03 04:07:39;;;;;;;23.02;11.32;;;;;;;2.23;100.00;161153.25;5029111;28;20532;-57
2022/05/03 04:10:04;;;;;;;15.18;8.98;;;;;;;2.10;100.00;161119.69;5031271;28;20029;-57
2022/05/03 04:12:30;;;;;;;20.80;10.32;;;;;;;2.00;100.00;161094.19;5027336;28;20056;-56
2022/05/03 04:14:55;;;;;;;28.27;12.40;;;;;;;1.97;100.00;161084.81;5030602;28;20784;-56
2022/05/03 04:17:21;;;;;;;21.05;11.25;;;;;;;1.92;100.00;161071.34;5030462;28;20088;-56
2022/05/03 04:19:46;;;;;;;26.65;11.13;;;;;;;1.87;100.00;161060.63;5034414;28;20384;-54
2022/05/03 04:22:27;;;;;;;21.13;10.40;;;;;;;1.96;100.00;161082.09;5033636;28;20037;-54
2022/05/03 04:24:52;;;;;;;14.70;10.90;;;;;;;2.06;100.00;161108.91;5023459;28;20477;-55
2022/05/03 04:27:19;;;;;;;17.95;10.75;;;;;;;2.19;100.00;161142.47;5028462;28;20037;-55
2022/05/03 04:29:44;;;;;;;14.02;10.70;;;;;;;2.26;100.00;161159.94;5030788;28;20043;-54
2022/05/03 04:32:10;;;;;;;17.65;13.48;;;;;;;2.40;100.00;161197.53;5018970;28;20038;-55
2022/05/03 04:34:35;;;;;;;17.05;12.55;;;;;;;2.46;100.00;161213.63;5014069;28;20021;-54
2022/05/03 04:37:01;;;;;;;17.77;11.73;;;;;;;2.50;100.00;161224.34;5013068;28;20045;-54
2022/05/03 04:39:26;;;;;;;21.92;11.05;;;;;;;2.59;100.00;161245.84;5013791;28;20033;-55
2022/05/03 04:41:51;;;;;;;18.00;14.35;;;;;;;2.74;100.00;161286.13;5012637;28;20048;-55
2022/05/03 04:44:17;;;;;;;16.85;13.25;;;;;;;2.80;100.00;161302.22;5014139;28;20030;-54
2022/05/03 04:46:42;;;;;;;25.95;15.30;;;;;;;2.93;100.00;161334.50;5012992;28;20571;-54
2022/05/03 04:49:07;;;;;;;15.02;11.77;;;;;;;3.01;100.00;161355.97;5014333;28;20025;-55
2022/05/03 04:51:33;;;;;;;14.95;13.38;;;;;;;3.05;100.00;161366.72;5012807;28;20042;-54
2022/05/03 04:53:58;;;;;;;16.75;12.30;;;;;;;3.13;100.00;161386.81;5014691;28;20025;-54
2022/05/03 04:56:25;;;;;;;15.63;11.45;;;;;;;3.19;100.00;161402.97;5012878;28;20401;-55
2022/05/03 04:58:55;;;;;;;19.98;11.43;;;;;;;3.28;100.00;161425.81;5014454;28;20033;-55
2022/05/03 05:01:20;;;;;;;33.30;14.13;;;;;;;3.32;100.00;161436.53;5013022;28;20408;-55
2022/05/03 05:03:47;;;;;;;21.90;11.82;;;;;;;3.36;100.00;161447.31;5013875;28;20029;-55
2022/05/03 05:06:12;;;;;;;15.32;11.70;;;;;;;3.41;100.00;161460.72;5012819;28;20045;-55
2022/05/03 05:08:38;;;;;;;16.40;13.35;;;;;;;3.49;100.00;161482.22;5014108;28;20022;-55
2022/05/03 05:11:04;;;;;;;18.92;13.27;;;;;;;3.60;100.00;161509.09;5012612;28;20038;-55
2022/05/03 05:13:30;;;;;;;15.23;13.63;;;;;;;3.72;100.00;161541.34;5014105;28;20041;-55
2022/05/03 05:15:55;;;;;;;17.88;13.32;;;;;;;3.83;100.00;161568.22;5012471;28;20045;-55
2022/05/03 05:18:21;;;;;;;17.45;14.63;;;;;;;4.00;100.00;161612.56;5014088;28;20022;-55
2022/05/03 05:20:46;;;;;;;18.65;15.68;;;;;;;4.13;100.00;161647.50;5012683;28;20722;-55
2022/05/03 05:23:12;;;;;;;16.08;14.15;;;;;;;4.41;100.00;161721.44;5014040;28;20018;-55
2022/05/03 05:25:37;;;;;;;26.00;14.05;;;;;;;4.58;100.00;161765.81;5012059;28;20145;-55
2022/05/03 05:28:03;;;;;;;18.38;15.70;;;;;;;4.75;100.00;161810.16;5013616;28;20022;-55
2022/05/03 05:30:28;;;;;;;22.10;15.00;;;;;;;4.92;100.00;161853.19;5011670;28;20061;-55
2022/05/03 05:32:54;;;;;;;20.70;14.43;;;;;;;5.07;100.00;161892.16;5013526;28;20358;-55
2022/05/03 05:35:19;;;;;;;21.00;12.35;;;;;;;5.21;100.00;161928.50;5013816;28;20034;-55
2022/05/03 05:37:45;;;;;;;18.90;11.65;;;;;;;5.34;100.00;161963.47;5011818;28;20046;-55
2022/05/03 05:40:12;;;;;;;18.52;14.65;;;;;;;5.48;100.00;161999.81;5013425;28;20544;-55
2022/05/03 05:42:37;;;;;;;14.90;12.63;;;;;;;5.64;100.00;162041.50;5010701;28;20413;-55
2022/05/03 05:45:02;;;;;;;15.50;11.75;;;;;;;5.78;100.00;162076.47;5013618;28;20022;-55
2022/05/03 05:47:28;;;;;;;13.63;12.18;;;;;;;5.94;100.00;162119.53;5011659;28;20800;-55
2022/05/03 05:49:53;;;;;;;20.05;13.15;;;;;;;6.08;100.00;162154.56;5013433;28;20018;-55
2022/05/03 05:55:04;;;;;;;21.48;11.15;;;;;;;6.33;100.00;162220.53;5013293;28;20060;-56
2022/05/03 05:57:29;;;;;;;22.80;11.60;;;;;;;6.44;100.00;162248.84;5011704;28;20128;-55
2022/05/03 05:59:54;;;;;;;17.88;11.52;;;;;;;6.57;100.00;162283.81;5013195;28;20033;-53
2022/05/03 06:02:20;;;;;;;13.52;10.10;;;;;;;6.69;100.00;162314.81;5011392;28;20054;-53
2022/05/03 06:04:45;;;;;;;17.13;10.88;;;;;;;6.81;100.00;162345.78;5012847;28;20468;-53
2022/05/03 06:07:10;;;;;;;13.07;9.75;;;;;;;6.91;100.00;162372.66;5011968;28;20052;-53
2022/05/03 06:09:36;;;;;;;13.98;10.45;;;;;;;7.08;100.00;162415.78;5012591;28;20026;-54
2022/05/03 06:12:02;;;;;;;19.58;11.23;;;;;;;7.26;100.00;162462.91;5011782;28;20041;-53
2022/05/03 06:14:27;;;;;;;13.85;9.65;;;;;;;7.36;100.00;162488.50;5012670;28;20486;-54
2022/05/03 06:16:55;;;;;;;15.00;9.40;;;;;;;7.48;100.00;162520.84;5011449;28;20038;-54
2022/05/03 06:19:20;;;;;;;13.57;8.65;;;;;;;7.60;100.00;162553.16;5012993;28;20029;-53
2022/05/03 06:21:46;;;;;;;10.85;7.95;;;;;;;7.71;100.00;162580.09;5011428;28;20045;-54
2022/05/03 06:24:12;;;;;;;9.57;8.43;;;;;;;7.88;100.00;162625.91;5012414;28;20022;-53
2022/05/03 06:26:38;;;;;;;13.50;11.30;;;;;;;7.99;100.00;162652.88;5011304;28;20053;-53
2022/05/03 06:29:06;;;;;;;19.77;9.35;;;;;;;8.09;100.00;162679.81;5011925;28;20425;-53
2022/05/03 06:31:35;;;;;;;18.08;8.65;;;;;;;8.25;100.00;162721.63;5009296;28;20133;-54
2022/05/03 06:34:01;;;;;;;13.05;10.18;;;;;;;8.31;100.00;162737.78;5011207;28;20491;-52
2022/05/03 06:36:26;;;;;;;10.00;8.30;;;;;;;8.45;100.00;162774.13;5010947;28;20042;-53
2022/05/03 06:38:51;;;;;;;13.55;9.07;;;;;;;8.56;100.00;162803.88;5012466;28;20022;-53
2022/05/03 06:41:17;;;;;;;9.25;8.07;;;;;;;8.67;100.00;162830.84;5010298;28;20386;-53
2022/05/03 06:43:42;;;;;;;10.45;6.85;;;;;;;8.86;100.00;162882.06;5012247;28;20026;-51
2022/05/03 06:46:08;;;;;;;8.73;7.28;;;;;;;9.10;100.00;162944.09;5010819;28;20046;-53
2022/05/03 06:48:33;;;;;;;9.13;6.72;;;;;;;9.51;100.00;163051.97;5012317;28;20030;-53
2022/05/03 06:50:58;;;;;;;9.68;6.55;;;;;;;10.19;100.00;163227.38;5011090;28;20048;-53
2022/05/03 06:53:23;;;;;;;7.80;6.35;;;;;;;10.93;100.00;163423.16;5011991;28;20405;-53
2022/05/03 06:55:49;;;;;;;6.20;5.55;;;;;;;12.17;100.00;163746.00;5010752;28;20107;-53
2022/05/03 06:58:14;;;;;;;7.00;5.95;;;;;;;13.30;100.00;164042.00;5012438;28;20033;-53
2022/05/03 07:00:39;;;;;;;15.93;7.65;;;;;;;13.63;100.00;164129.94;5010301;28;20046;-52
2022/05/03 07:03:12;;;;;;;10.02;5.78;;;;;;;14.17;100.00;164270.59;5065404;28;20621;-52
2022/05/03 07:05:38;;;;;;;6.55;5.60;;;;;;;14.71;100.00;164412.69;5042470;28;20056;-52
2022/05/03 07:08:03;;;;;;;7.30;5.28;;;;;;;14.87;100.00;164454.63;5008124;28;20029;-53
2022/05/03 07:10:29;;;;;;;8.45;6.22;;;;;;;14.41;100.00;164332.78;5006869;28;20034;-52
2022/05/03 07:12:54;;;;;;;6.65;5.95;;;;;;;14.64;100.00;164392.31;5008602;28;20088;-53
2022/05/03 07:15:19;;;;;;;7.93;4.47;;;;;;;14.32;100.00;164309.81;5008508;28;20030;-53
2022/05/03 07:23:15;;;;;;;8.90;5.35;;;;;;;14.50;88.11;164357.16;5007931;28;20041;-53
2022/05/03 07:25:40;;;;;;;8.93;4.65;;;;;;;14.50;88.27;164357.16;5006998;28;20084;-53
2022/05/03 07:28:06;;;;;;;11.30;5.47;;;;;;;14.82;87.52;164439.78;5008085;28;20022;-54
2022/05/03 07:30:31;;;;;;;11.63;5.78;;;;;;;14.13;90.79;164259.75;5006469;28;20125;-52
2022/05/03 07:32:57;;;;;;;10.77;6.68;;;;;;;14.08;93.87;164246.25;5008238;28;20033;-53
2022/05/03 07:35:23;;;;;;;7.78;5.05;;;;;;;14.16;96.57;164266.50;5007706;28;20018;-53
2022/05/03 07:37:50;;;;;;;9.10;5.70;;;;;;;13.92;97.86;164205.66;5005642;28;20049;-52
2022/05/03 07:40:16;;;;;;;12.18;7.32;;;;;;;13.43;100.00;164075.84;5007389;28;20747;-53
2022/05/03 07:42:41;;;;;;;11.95;8.45;;;;;;;13.17;100.00;164009.56;5005938;28;20042;-52
2022/05/03 07:45:07;;;;;;;9.38;6.93;;;;;;;13.29;100.00;164040.59;5007784;28;20026;-53
2022/05/03 07:47:33;;;;;;;7.13;6.28;;;;;;;13.31;100.00;164046.03;5002947;28;20452;-53
2022/05/03 07:49:58;;;;;;;9.60;6.55;;;;;;;13.22;100.00;164020.34;5007492;28;20018;-53
2022/05/03 07:52:23;;;;;;;11.27;6.97;;;;;;;13.66;100.00;164135.34;5006319;28;20038;-53
2022/05/03 07:54:49;;;;;;;8.13;5.75;;;;;;;13.81;100.00;164175.94;5008121;28;20030;-53
2022/05/03 07:57:14;;;;;;;10.30;6.93;;;;;;;14.02;100.00;164230.03;5006510;28;20489;-53
2022/05/03 07:59:40;;;;;;;10.93;6.80;;;;;;;14.31;100.00;164305.75;5007657;28;20399;-52
2022/05/03 08:02:05;;;;;;;7.63;6.50;;;;;;;14.53;100.00;164365.28;5005912;28;20061;-53
2022/05/03 08:04:30;;;;;;;10.10;6.88;;;;;;;14.63;100.00;164389.66;5007564;28;20030;-53
2022/05/03 08:06:56;;;;;;;7.93;6.63;;;;;;;14.28;100.00;164300.34;5006259;28;20098;-53
2022/05/03 08:09:21;;;;;;;7.35;6.55;;;;;;;14.07;100.00;164243.53;5007855;28;20026;-53
2022/05/03 08:11:47;;;;;;;14.38;5.97;;;;;;;14.43;100.00;164338.22;5006192;28;20038;-53
2022/05/03 08:14:12;;;;;;;16.75;6.53;;;;;;;14.11;100.00;164254.38;4996577;28;20027;-52
2022/05/03 08:16:38;;;;;;;8.27;6.35;;;;;;;14.23;100.00;164286.81;4992677;28;20042;-53
2022/05/03 08:19:04;;;;;;;26.45;7.55;;;;;;;14.19;100.00;164275.97;4994995;28;20029;-52
2022/05/03 08:21:32;;;;;;;12.13;7.70;;;;;;;14.27;100.00;164296.28;4992725;28;20616;-53
2022/05/03 08:23:58;;;;;;;10.88;6.88;;;;;;;15.03;100.00;164495.22;4993923;28;20493;-54
2022/05/03 08:26:23;;;;;;;7.50;6.53;;;;;;;15.31;100.00;164568.31;4993008;28;20046;-53
2022/05/03 08:28:49;;;;;;;8.23;6.72;;;;;;;15.41;100.00;164595.41;4993998;28;20026;-53
2022/05/03 08:31:14;;;;;;;9.13;6.75;;;;;;;15.07;100.00;164506.09;4992748;28;20043;-53
2022/05/03 08:33:39;;;;;;;7.82;6.53;;;;;;;15.49;100.00;164617.06;4994334;28;20019;-52
2022/05/03 08:36:05;;;;;;;7.38;6.07;;;;;;;15.80;98.09;164698.31;4992622;28;20093;-52
2022/05/03 08:44:00;;;;;;;17.80;6.57;;;;;;;15.98;100.00;164744.38;4994212;28;20326;-53
2022/05/03 08:46:25;;;;;;;8.30;5.97;;;;;;;16.01;97.35;164752.53;4992248;28;20042;-53
2022/05/03 08:48:58;;;;;;;8.35;6.93;;;;;;;15.83;97.04;164706.47;4993869;28;20111;-53
2022/05/03 08:51:27;;;;;;;11.80;7.00;;;;;;;15.91;94.40;164725.41;4992464;28;20429;-54
2022/05/03 08:53:52;;;;;;;11.93;6.75;;;;;;;15.93;95.75;164732.22;4992926;28;20119;-53
2022/05/03 08:56:18;;;;;;;14.20;7.05;;;;;;;15.96;95.48;164739.00;4988715;28;20034;-52
2022/05/03 08:58:44;;;;;;;10.75;7.78;;;;;;;16.00;96.31;164751.19;4992839;28;20812;-52
2022/05/03 09:01:10;;;;;;;10.07;8.13;;;;;;;16.24;99.14;164813.44;4991093;28;20062;-52
2022/05/03 09:03:37;;;;;;;11.18;6.32;;;;;;;16.42;97.95;164860.84;4993412;28;20057;-53
2022/05/03 09:06:03;;;;;;;8.20;6.85;;;;;;;16.67;100.00;164925.88;4992432;28;20085;-53
2022/05/03 09:08:28;;;;;;;13.68;8.40;;;;;;;16.82;98.99;164965.19;4993036;28;20096;-53
2022/05/03 09:10:54;;;;;;;9.63;7.20;;;;;;;16.70;94.21;164934.03;4991693;28;20498;-53
2022/05/03 09:13:22;;;;;;;9.93;6.90;;;;;;;16.90;97.61;164986.81;4993440;28;20364;-53
2022/05/03 09:15:57;;;;;;;;;;;;;;;16.93;94.79;164993.69;4991979;28;20034;-53
2022/05/03 09:18:28;;;;;;;9.50;6.60;;;;;;;17.11;95.31;165042.44;4993256;28;20487;-56
2022/05/03 09:23:48;;;;;;;11.80;6.97;;;;;;;17.68;92.88;165191.56;4993279;28;20084;-53
2022/05/03 09:26:18;;;;;;;9.23;7.00;;;;;;;17.80;98.76;165221.34;4991128;28;20042;-53
2022/05/03 09:28:58;;;;;;;9.18;8.23;;;;;;;18.13;97.33;165308.19;4992262;28;20034;-52
2022/05/03 09:31:30;;;;;;;7.68;6.97;;;;;;;17.84;100.00;165233.56;4989576;28;20093;-53
2022/05/03 09:33:56;;;;;;;8.60;7.25;;;;;;;17.52;97.57;165149.50;4993122;28;20026;-53
2022/05/03 09:36:22;;;;;;;10.23;8.18;;;;;;;17.31;92.84;165093.97;4991068;28;20046;-53
2022/05/03 09:38:50;;;;;;;10.02;7.03;;;;;;;17.45;95.86;165130.53;4992188;28;20026;-53
2022/05/03 09:41:16;;;;;;;9.93;7.05;;;;;;;18.06;94.12;165291.88;4990967;28;20569;-52
2022/05/03 09:44:07;;;;;;;13.20;7.90;;;;;;;17.96;92.03;165264.78;4991658;28;20524;-53
2022/05/03 09:46:52;;;;;;;18.52;8.48;;;;;;;17.36;93.50;165106.13;4990545;28;20045;-53
2022/05/03 09:49:19;;;;;;;10.98;7.82;;;;;;;17.08;92.26;165034.34;4989096;28;20436;-53
2022/05/03 09:51:45;;;;;;;9.00;7.80;;;;;;;17.14;97.85;165049.22;4989723;28;20425;-53
2022/05/03 09:54:10;;;;;;;10.45;8.75;;;;;;;16.32;97.68;164833.78;4991842;28;20105;-54
2022/05/03 09:56:39;;;;;;;8.50;7.65;;;;;;;16.21;98.92;164803.97;4989105;28;20457;-53
2022/05/03 09:59:07;;;;;;;9.50;8.20;;;;;;;15.99;99.35;164747.09;4990780;28;20042;-52
2022/05/03 10:01:34;;;;;;;10.27;7.95;;;;;;;16.04;100.00;164760.66;4986083;28;20781;-52
2022/05/03 10:04:00;;;;;;;7.55;6.78;;;;;;;15.76;100.00;164687.47;4990927;28;20548;-52
2022/05/03 10:06:26;;;;;;;11.13;7.88;;;;;;;15.93;100.00;164732.22;4989293;28;20133;-52
2022/05/03 10:08:52;;;;;;;13.13;9.23;;;;;;;16.50;100.00;164881.19;4990890;28;20032;-52
2022/05/03 10:11:18;;;;;;;13.55;7.63;;;;;;;16.73;100.00;164942.13;4990604;28;20042;-52
2022/05/03 10:13:44;;;;;;;15.00;7.80;;;;;;;17.10;100.00;165039.72;4975634;28;20658;-52
2022/05/03 10:21:50;;;;;;;11.23;9.13;;;;;;;19.31;91.85;165618.78;4973647;28;20138;-52
2022/05/03 10:24:16;;;;;;;11.55;9.85;;;;;;;18.95;87.63;165523.81;4979667;28;20142;-52
2022/05/03 10:27:07;;;;;;;13.90;10.43;;;;;;;18.13;92.00;165308.19;4970417;28;20736;-52
2022/05/03 10:29:36;;;;;;;10.45;8.20;;;;;;;17.20;95.26;165064.13;4969973;28;20494;-52
2022/05/03 10:32:05;;;;;;;;;;;;;;;16.69;98.61;164931.31;4971756;28;20069;-53
2022/05/03 10:34:46;;;;;;;11.48;9.40;;;;;;;16.39;100.00;164852.75;4971845;28;19910;-53
2022/05/03 10:37:33;;;;;;;11.80;9.55;;;;;;;16.83;100.00;164967.84;4980100;28;20138;-52
2022/05/03 10:40:29;;;;;;;10.13;9.13;;;;;;;17.33;98.49;165099.34;4991695;28;20026;-52
2022/05/03 10:43:11;;;;;;;9.45;7.60;;;;;;;17.08;99.26;165032.97;4987169;28;20089;-53
2022/05/03 10:45:50;;;;;;;9.20;8.20;;;;;;;16.31;99.23;164831.06;4988863;28;20173;-52
2022/05/03 10:48:29;;;;;;;19.05;8.05;;;;;;;16.04;100.00;164760.66;4974951;28;20060;-50
2022/05/03 10:51:00;;;;;;;13.52;9.48;;;;;;;15.89;100.00;164720.03;4988865;28;20042;-51
2022/05/03 10:53:28;;;;;;;10.80;7.82;;;;;;;16.37;100.00;164847.31;4990823;28;20032;-52
2022/05/03 10:56:17;;;;;;;9.82;8.77;;;;;;;16.67;100.00;164925.88;4989025;28;20054;-52
2022/05/03 10:59:05;;;;;;;13.75;11.77;;;;;;;16.78;100.00;164955.72;4991144;28;20054;-53
2022/05/03 11:01:31;;;;;;;;;;;;;;;16.69;100.00;164931.31;4990084;28;20046;-52
2022/05/03 11:03:59;;;;;;;17.57;10.00;;;;;;;17.22;100.00;165069.56;4991551;28;19917;-52
2022/05/03 11:06:27;;;;;;;11.13;7.25;;;;;;;17.61;100.00;165172.53;4989625;28;20489;-52
2022/05/03 11:09:08;;;;;;;12.82;9.43;;;;;;;18.19;99.64;165324.44;4991562;28;20034;-52
2022/05/03 11:11:39;;;;;;;11.73;9.15;;;;;;;18.26;98.84;165343.44;4989575;28;20521;-52
2022/05/03 11:14:05;;;;;;;11.07;9.55;;;;;;;17.49;96.86;165140.03;4991069;28;20044;-52
2022/05/03 11:16:34;;;;;;;10.18;8.32;;;;;;;17.12;99.03;165045.16;4989409;28;20117;-52
2022/05/03 11:19:10;;;;;;;11.80;8.18;;;;;;;17.15;100.00;165050.59;4991468;28;20026;-52
2022/05/03 11:21:35;;;;;;;10.10;8.35;;;;;;;17.43;100.00;165126.47;4988714;28;20057;-53
2022/05/03 11:24:00;;;;;;;9.55;7.13;;;;;;;17.58;100.00;165164.44;4991165;28;20030;-53
2022/05/03 11:26:26;;;;;;;9.55;7.57;;;;;;;17.41;100.00;165121.03;4989556;28;20042;-52
2022/05/03 11:28:53;;;;;;;8.95;5.72;;;;;;;17.04;95.95;165023.47;4990936;28;20027;-53
2022/05/03 11:31:22;;;;;;;6.05;5.45;;;;;;;17.22;96.46;165069.56;4989509;28;20034;-51
2022/05/03 11:33:52;;;;;;;8.05;5.50;;;;;;;16.93;98.62;164995.03;4987173;28;20033;-52
2022/05/03 11:36:19;;;;;;;10.07;8.98;;;;;;;17.14;100.00;165049.22;4989010;28;20042;-52
2022/05/03 11:38:47;;;;;;;12.02;10.73;;;;;;;17.04;100.00;165023.47;4990830;28;20421;-52
2022/05/03 11:41:14;;;;;;;11.27;10.15;;;;;;;17.43;100.00;165126.47;4989599;28;20500;-51
2022/05/03 11:43:39;;;;;;;11.95;8.85;;;;;;;17.95;100.00;165262.06;4990055;28;20480;-53
2022/05/03 11:46:04;;;;;;;10.48;9.07;;;;;;;18.11;100.00;165302.75;4989321;28;20049;-52
2022/05/03 11:48:30;;;;;;;11.43;10.23;;;;;;;18.31;100.00;165356.97;4992062;28;20022;-52
2022/05/03 11:56:26;;;;;;;10.05;8.48;;;;;;;19.22;89.82;165594.34;4992440;28;20053;-53
2022/05/03 11:58:52;;;;;;;12.93;9.63;;;;;;;18.98;92.80;165533.31;4993767;28;20069;-53
2022/05/03 12:01:18;;;;;;;13.30;10.20;;;;;;;18.95;90.88;165525.16;4992757;28;20078;-53